createdAt,value
2019-05-01T00:00:23.411Z,37.87
2019-05-01T00:03:14.389Z,48.00
2019-05-01T00:05:45.747Z,36.93
2019-05-01T00:08:14.880Z,48.60
2019-05-01T00:10:43.736Z,39.80
2019-05-01T00:13:12.563Z,47.07
2019-05-01T00:15:42.024Z,38.73
2019-05-01T00:18:10.759Z,42.20
2019-05-01T00:20:39.749Z,51.97
2019-05-01T00:23:08.822Z,40.53
2019-05-01T00:25:37.661Z,41.83
2019-05-01T00:28:07.663Z,44.30
2019-05-01T00:30:37.035Z,39.03
2019-05-01T00:33:05.840Z,51.30
2019-05-01T00:35:34.959Z,38.70
2019-05-01T00:38:03.768Z,47.70
2019-05-01T00:40:32.589Z,46.27
2019-05-01T00:43:01.450Z,45.70
2019-05-01T00:45:30.224Z,41.50
2019-05-01T00:47:59.067Z,42.80
2019-05-01T00:50:27.872Z,40.13
2019-05-01T00:52:56.672Z,40.20
2019-05-01T00:55:43.895Z,40.80
2019-05-01T00:58:19.664Z,41.40
2019-05-01T01:01:14.589Z,38.83
2019-05-01T01:03:43.483Z,41.57
2019-05-01T01:06:12.667Z,51.07
2019-05-01T01:08:41.448Z,46.97
2019-05-01T01:11:10.220Z,41.10
2019-05-01T01:13:39.135Z,47.47
2019-05-01T01:16:07.885Z,38.40
2019-05-01T01:18:36.772Z,45.50
2019-05-01T01:21:05.550Z,42.33
2019-05-01T01:23:34.967Z,36.83
2019-05-01T01:26:04.398Z,51.30
2019-05-01T01:28:33.193Z,49.80
2019-05-01T01:31:02.179Z,43.50
2019-05-01T01:33:30.986Z,40.43
2019-05-01T01:35:59.775Z,42.70
2019-05-01T01:38:28.549Z,41.73
2019-05-01T01:40:57.563Z,52.63
2019-05-01T01:43:43.594Z,51.73
2019-05-01T01:46:14.518Z,40.90
2019-05-01T01:48:43.382Z,45.07
2019-05-01T01:51:12.415Z,45.93
2019-05-01T01:53:42.528Z,45.13
2019-05-01T01:56:11.484Z,54.07
2019-05-01T01:58:40.394Z,40.53
2019-05-01T02:01:34.038Z,47.73
2019-05-01T02:04:08.320Z,47.87
2019-05-01T02:06:37.289Z,44.37
2019-05-01T02:09:07.501Z,41.53
2019-05-01T02:11:36.563Z,49.43
2019-05-01T02:14:05.546Z,45.37
2019-05-01T02:16:34.323Z,57.30
2019-05-01T02:19:03.281Z,53.27
2019-05-01T02:21:32.165Z,44.47
2019-05-01T02:24:01.561Z,38.83
2019-05-01T02:26:33.749Z,53.37
2019-05-01T02:29:09.828Z,43.60
2019-05-01T02:31:43.671Z,50.43
2019-05-01T02:34:12.690Z,42.93
2019-05-01T02:36:43.646Z,46.80
2019-05-01T02:39:13.340Z,46.37
2019-05-01T02:41:44.383Z,43.37
2019-05-01T02:44:18.784Z,35.57
2019-05-01T02:46:51.019Z,63.50
2019-05-01T02:49:31.147Z,47.77
2019-05-01T02:52:00.941Z,41.77
2019-05-01T02:54:30.291Z,44.83
2019-05-01T02:57:11.004Z,39.83
2019-05-01T02:59:43.653Z,43.00
2019-05-01T03:02:12.864Z,43.80
2019-05-01T03:04:42.334Z,43.80
2019-05-01T03:07:11.669Z,39.47
2019-05-01T03:09:41.888Z,42.70
2019-05-01T03:12:11.868Z,45.40
2019-05-01T03:14:44.172Z,44.93
2019-05-01T03:17:31.827Z,43.20
2019-05-01T03:20:30.224Z,36.70
2019-05-01T03:23:22.836Z,48.60
2019-05-01T03:25:52.027Z,49.43
2019-05-01T03:28:21.743Z,40.00
2019-05-01T03:30:50.698Z,47.40
2019-05-01T03:33:19.577Z,39.47
2019-05-01T03:35:48.979Z,35.97
2019-05-01T03:38:18.557Z,42.90
2019-05-01T03:40:47.734Z,40.50
2019-05-01T03:43:16.761Z,43.30
2019-05-01T03:45:46.142Z,39.27
2019-05-01T03:48:15.187Z,41.27
2019-05-01T03:50:46.874Z,42.20
2019-05-01T03:53:15.667Z,37.30
2019-05-01T03:55:44.948Z,45.07
2019-05-01T03:58:14.338Z,36.93
2019-05-01T04:01:02.817Z,39.37
2019-05-01T04:03:35.694Z,41.20
2019-05-01T04:06:04.961Z,41.30
2019-05-01T04:08:34.090Z,40.70
2019-05-01T04:11:03.640Z,51.60
2019-05-01T04:13:33.218Z,44.50
2019-05-01T04:16:02.487Z,40.00
2019-05-01T04:18:31.535Z,49.93
2019-05-01T04:21:01.254Z,45.57
2019-05-01T04:23:30.352Z,53.10
2019-05-01T04:25:59.797Z,55.53
2019-05-01T04:28:42.073Z,52.43
2019-05-01T04:31:34.209Z,53.30
2019-05-01T04:34:07.385Z,49.93
2019-05-01T04:36:40.404Z,51.10
2019-05-01T04:39:09.237Z,50.77
2019-05-01T04:41:38.279Z,49.90
2019-05-01T04:44:07.168Z,66.30
2019-05-01T04:46:36.360Z,53.60
2019-05-01T04:49:05.519Z,60.83
2019-05-01T04:51:35.444Z,55.97
2019-05-01T04:54:04.936Z,58.33
2019-05-01T04:56:33.742Z,78.50
2019-05-01T04:59:02.796Z,75.50
2019-05-01T05:01:52.322Z,67.60
2019-05-01T05:04:21.767Z,68.53
2019-05-01T05:06:50.983Z,73.43
2019-05-01T05:09:21.934Z,69.97
2019-05-01T05:11:56.572Z,76.90
2019-05-01T05:14:30.280Z,88.97
2019-05-01T05:17:04.816Z,98.07
2019-05-01T05:19:34.214Z,105.93
2019-05-01T05:22:03.245Z,101.57
2019-05-01T05:24:32.477Z,100.27
2019-05-01T05:27:01.518Z,107.93
2019-05-01T05:29:33.169Z,117.40
2019-05-01T05:32:03.791Z,97.30
2019-05-01T05:34:33.584Z,105.07
2019-05-01T05:37:12.438Z,109.33
2019-05-01T05:39:45.674Z,113.50
2019-05-01T05:42:14.627Z,108.20
2019-05-01T05:44:44.205Z,109.83
2019-05-01T05:47:13.359Z,112.87
2019-05-01T05:49:42.432Z,110.77
2019-05-01T05:52:21.327Z,113.93
2019-05-01T05:55:08.318Z,110.03
2019-05-01T05:57:55.460Z,116.97
2019-05-01T06:00:36.562Z,104.50
2019-05-01T06:03:38.394Z,116.10
2019-05-01T06:06:20.943Z,112.77
2019-05-01T06:08:52.893Z,127.93
2019-05-01T06:11:43.260Z,105.10
2019-05-01T06:14:32.584Z,103.20
2019-05-01T06:17:23.690Z,107.37
2019-05-01T06:20:03.462Z,118.97
2019-05-01T06:22:40.810Z,111.83
2019-05-01T06:25:22.829Z,97.27
2019-05-01T06:27:50.555Z,108.60
2019-05-01T06:30:19.490Z,104.17
2019-05-01T06:32:48.440Z,96.53
2019-05-01T06:35:17.527Z,93.07
2019-05-01T06:38:00.595Z,92.93
2019-05-01T06:40:44.239Z,112.63
2019-05-01T06:43:33.894Z,87.47
2019-05-01T06:46:22.133Z,94.37
2019-05-01T06:48:57.247Z,65.93
2019-05-01T06:51:48.077Z,86.07
2019-05-01T06:54:17.566Z,78.60
2019-05-01T06:56:49.812Z,85.93
2019-05-01T06:59:19.463Z,90.83
2019-05-01T07:01:53.042Z,78.50
2019-05-01T07:04:20.811Z,87.30
2019-05-01T07:06:50.436Z,79.93
2019-05-01T07:09:27.811Z,94.27
2019-05-01T07:11:52.849Z,75.43
2019-05-01T07:14:22.012Z,76.33
2019-05-01T07:16:50.927Z,93.53
2019-05-01T07:19:21.815Z,90.73
2019-05-01T07:21:51.275Z,82.50
2019-05-01T07:24:24.107Z,73.10
2019-05-01T07:26:51.124Z,79.20
2019-05-01T07:29:21.967Z,76.33
2019-05-01T07:31:50.948Z,74.63
2019-05-01T07:34:21.744Z,79.50
2019-05-01T07:36:51.761Z,82.90
2019-05-01T07:39:20.774Z,80.67
2019-05-01T07:41:50.756Z,67.83
2019-05-01T07:44:29.999Z,76.70
2019-05-01T07:47:16.997Z,69.40
2019-05-01T07:49:54.616Z,75.80
2019-05-01T07:52:25.098Z,65.47
2019-05-01T07:54:55.592Z,73.13
2019-05-01T07:57:24.812Z,66.20
2019-05-01T07:59:58.119Z,64.13
2019-05-01T08:02:25.820Z,57.80
2019-05-01T08:04:55.415Z,57.43
2019-05-01T08:07:27.905Z,58.83
2019-05-01T08:09:54.856Z,69.67
2019-05-01T08:12:25.669Z,55.90
2019-05-01T08:14:54.353Z,68.00
2019-05-01T08:17:24.804Z,68.00
2019-05-01T08:20:09.837Z,63.20
2019-05-01T08:22:39.105Z,58.30
2019-05-01T08:25:08.646Z,62.17
2019-05-01T08:27:56.212Z,63.60
2019-05-01T08:30:54.062Z,64.47
2019-05-01T08:33:44.858Z,78.73
2019-05-01T08:36:13.864Z,59.90
2019-05-01T08:38:42.699Z,70.37
2019-05-01T08:41:11.795Z,64.23
2019-05-01T08:43:41.275Z,61.57
2019-05-01T08:46:28.707Z,57.63
2019-05-01T08:49:11.400Z,56.70
2019-05-01T08:51:41.095Z,60.67
2019-05-01T08:54:09.815Z,63.60
2019-05-01T08:56:39.256Z,63.23
2019-05-01T08:59:08.063Z,58.30
2019-05-01T09:01:37.871Z,55.47
2019-05-01T09:04:13.027Z,57.93
2019-05-01T09:06:39.260Z,53.37
2019-05-01T09:09:10.028Z,64.93
2019-05-01T09:11:39.015Z,61.63
2019-05-01T09:14:07.846Z,51.60
2019-05-01T09:16:37.328Z,54.53
2019-05-01T09:19:06.133Z,64.67
2019-05-01T09:21:37.905Z,57.13
2019-05-01T09:24:05.531Z,63.03
2019-05-01T09:26:53.594Z,57.83
2019-05-01T09:29:28.147Z,56.20
2019-05-01T09:31:57.103Z,56.43
2019-05-01T09:34:26.208Z,56.93
2019-05-01T09:36:54.985Z,55.63
2019-05-01T09:39:24.687Z,58.27
2019-05-01T09:41:53.600Z,52.90
2019-05-01T09:44:23.199Z,54.87
2019-05-01T09:46:51.995Z,58.10
2019-05-01T09:49:21.622Z,62.80
2019-05-01T09:52:08.235Z,61.10
2019-05-01T09:54:43.087Z,59.87
2019-05-01T09:57:11.496Z,51.83
2019-05-01T09:59:40.472Z,56.87
2019-05-01T10:02:09.437Z,57.37
2019-05-01T10:04:38.207Z,57.70
2019-05-01T10:07:08.626Z,55.50
2019-05-01T10:09:37.433Z,51.50
2019-05-01T10:12:06.461Z,46.37
2019-05-01T10:14:36.361Z,55.83
2019-05-01T10:17:06.262Z,47.23
2019-05-01T10:19:35.480Z,50.43
2019-05-01T10:22:04.473Z,50.30
2019-05-01T10:24:37.769Z,49.53
2019-05-01T10:27:05.536Z,47.13
2019-05-01T10:29:52.596Z,52.40
2019-05-01T10:32:28.253Z,45.23
2019-05-01T10:35:19.070Z,48.70
2019-05-01T10:37:47.254Z,52.20
2019-05-01T10:40:16.363Z,55.67
2019-05-01T10:42:45.528Z,50.97
2019-05-01T10:45:14.586Z,57.67
2019-05-01T10:47:43.647Z,52.43
2019-05-01T10:50:12.710Z,47.27
2019-05-01T10:52:41.583Z,51.90
2019-05-01T10:55:10.994Z,57.77
2019-05-01T10:57:41.954Z,48.33
2019-05-01T11:00:10.881Z,49.60
2019-05-01T11:02:39.846Z,46.20
2019-05-01T11:05:09.357Z,51.40
2019-05-01T11:07:38.995Z,48.60
2019-05-01T11:10:09.002Z,48.23
2019-05-01T11:12:40.603Z,49.27
2019-05-01T11:15:09.603Z,44.73
2019-05-01T11:17:38.923Z,50.60
2019-05-01T11:20:08.387Z,44.07
2019-05-01T11:22:37.138Z,42.57
2019-05-01T11:25:06.982Z,52.37
2019-05-01T11:27:38.031Z,50.00
2019-05-01T11:30:07.257Z,46.97
2019-05-01T11:33:10.302Z,50.03
2019-05-01T11:36:08.981Z,53.83
2019-05-01T11:38:49.569Z,50.20
2019-05-01T11:41:25.004Z,61.90
2019-05-01T11:43:53.730Z,50.30
2019-05-01T11:46:22.736Z,49.80
2019-05-01T11:48:51.706Z,45.43
2019-05-01T11:51:20.671Z,48.50
2019-05-01T11:53:50.210Z,42.17
2019-05-01T11:56:19.433Z,48.80
2019-05-01T11:58:48.287Z,45.83
2019-05-01T12:01:18.779Z,45.23
2019-05-01T12:03:47.638Z,44.83
2019-05-01T12:06:23.154Z,42.43
2019-05-01T12:08:47.487Z,41.30
2019-05-01T12:11:18.411Z,39.67
2019-05-01T12:13:47.268Z,39.90
2019-05-01T12:16:24.992Z,41.17
2019-05-01T12:18:53.756Z,37.57
2019-05-01T12:21:22.511Z,49.07
2019-05-01T12:23:57.653Z,38.73
2019-05-01T12:26:36.965Z,36.33
2019-05-01T12:29:05.670Z,37.97
2019-05-01T12:31:34.792Z,38.07
2019-05-01T12:34:03.571Z,38.47
2019-05-01T12:36:36.463Z,40.90
2019-05-01T12:39:04.147Z,50.97
2019-05-01T12:41:38.406Z,40.10
2019-05-01T12:44:07.262Z,40.40
2019-05-01T12:46:54.136Z,46.27
2019-05-01T12:49:22.919Z,42.80
2019-05-01T12:51:54.210Z,52.90
2019-05-01T12:54:37.442Z,48.50
2019-05-01T12:57:06.212Z,51.93
2019-05-01T12:59:35.080Z,44.00
2019-05-01T13:02:04.003Z,50.70
2019-05-01T13:04:32.764Z,53.37
2019-05-01T13:07:01.676Z,47.60
2019-05-01T13:09:30.978Z,45.90
2019-05-01T13:11:59.815Z,48.03
2019-05-01T13:14:28.538Z,42.67
2019-05-01T13:16:57.356Z,50.90
2019-05-01T13:19:26.178Z,43.57
2019-05-01T13:21:54.982Z,51.20
2019-05-01T13:24:23.822Z,46.07
2019-05-01T13:27:06.063Z,52.23
2019-05-01T13:29:39.592Z,55.90
2019-05-01T13:32:27.523Z,62.13
2019-05-01T13:34:56.273Z,45.20
2019-05-01T13:37:25.302Z,43.87
2019-05-01T13:39:54.051Z,42.20
2019-05-01T13:42:23.231Z,38.50
2019-05-01T13:44:52.095Z,39.23
2019-05-01T13:47:21.315Z,41.10
2019-05-01T13:49:50.402Z,38.33
2019-05-01T13:52:19.179Z,38.30
2019-05-01T13:54:48.254Z,41.60
2019-05-01T13:57:17.624Z,39.57
2019-05-01T13:59:46.415Z,42.23
2019-05-01T14:02:15.406Z,48.23
2019-05-01T14:04:44.584Z,37.97
2019-05-01T14:07:16.781Z,40.63
2019-05-01T14:09:44.415Z,46.27
2019-05-01T14:12:13.256Z,38.53
2019-05-01T14:14:42.087Z,40.93
2019-05-01T14:17:10.921Z,36.93
2019-05-01T14:19:41.799Z,42.80
2019-05-01T14:22:22.064Z,41.80
2019-05-01T14:24:54.004Z,40.20
2019-05-01T14:27:22.917Z,41.23
2019-05-01T14:29:51.710Z,40.60
2019-05-01T14:32:20.433Z,35.07
2019-05-01T14:34:49.327Z,36.40
2019-05-01T14:37:29.075Z,34.23
2019-05-01T14:39:50.811Z,34.73
2019-05-01T14:42:19.317Z,34.10
2019-05-01T14:44:50.708Z,43.63
2019-05-01T14:47:18.699Z,35.10
2019-05-01T14:49:47.454Z,35.57
2019-05-01T14:52:16.180Z,34.30
2019-05-01T14:54:45.099Z,35.37
2019-05-01T14:57:13.847Z,34.63
2019-05-01T14:59:42.662Z,35.63
2019-05-01T15:02:11.788Z,38.03
2019-05-01T15:04:40.578Z,35.97
2019-05-01T15:07:11.226Z,35.00
2019-05-01T15:09:40.306Z,35.63
2019-05-01T15:12:09.546Z,36.47
2019-05-01T15:14:56.704Z,44.33
2019-05-01T15:17:28.628Z,38.23
2019-05-01T15:20:03.349Z,43.63
2019-05-01T15:22:32.093Z,37.20
2019-05-01T15:25:01.258Z,35.33
2019-05-01T15:27:30.200Z,36.83
2019-05-01T15:29:58.992Z,35.17
2019-05-01T15:32:27.810Z,36.03
2019-05-01T15:34:58.105Z,35.63
2019-05-01T15:37:27.049Z,35.43
2019-05-01T15:40:03.323Z,35.07
2019-05-01T15:42:37.556Z,35.40
2019-05-01T15:45:07.302Z,35.80
2019-05-01T15:47:36.147Z,35.83
2019-05-01T15:50:05.924Z,35.43
2019-05-01T15:52:34.722Z,36.40
2019-05-01T15:55:04.131Z,36.23
2019-05-01T15:57:32.906Z,46.43
2019-05-01T16:00:02.187Z,37.40
2019-05-01T16:02:31.035Z,35.60
2019-05-01T16:04:59.825Z,39.10
2019-05-01T16:07:28.697Z,35.30
2019-05-01T16:09:57.493Z,36.23
2019-05-01T16:12:34.751Z,37.33
2019-05-01T16:15:07.158Z,37.87
2019-05-01T16:17:36.479Z,35.23
2019-05-01T16:20:06.088Z,36.80
2019-05-01T16:22:35.026Z,37.17
2019-05-01T16:25:04.194Z,36.20
2019-05-01T16:27:33.333Z,35.97
2019-05-01T16:30:02.150Z,36.13
2019-05-01T16:32:30.983Z,37.13
2019-05-01T16:35:00.236Z,38.40
2019-05-01T16:37:29.732Z,42.47
2019-05-01T16:40:08.372Z,40.47
2019-05-01T16:42:41.819Z,39.70
2019-05-01T16:45:11.685Z,37.10
2019-05-01T16:47:40.490Z,38.50
2019-05-01T16:50:11.674Z,37.93
2019-05-01T16:52:42.292Z,41.67
2019-05-01T16:55:13.733Z,37.87
2019-05-01T16:57:42.577Z,46.03
2019-05-01T17:00:12.757Z,48.20
2019-05-01T17:03:13.206Z,36.27
2019-05-01T17:06:19.804Z,38.93
2019-05-01T17:09:06.626Z,37.67
2019-05-01T17:11:51.483Z,37.40
2019-05-01T17:14:20.924Z,40.37
2019-05-01T17:16:49.877Z,42.97
2019-05-01T17:19:19.466Z,38.90
2019-05-01T17:21:48.311Z,41.47
2019-05-01T17:24:17.058Z,39.20
2019-05-01T17:26:45.879Z,41.80
2019-05-01T17:29:15.076Z,41.63
2019-05-01T17:31:44.054Z,36.03
2019-05-01T17:34:13.296Z,42.53
2019-05-01T17:36:42.086Z,41.97
2019-05-01T17:39:11.908Z,36.37
2019-05-01T17:41:40.812Z,38.47
2019-05-01T17:44:09.827Z,37.43
2019-05-01T17:46:41.981Z,41.30
2019-05-01T17:49:10.578Z,35.53
2019-05-01T17:51:42.617Z,42.60
2019-05-01T17:54:10.877Z,38.03
2019-05-01T17:56:39.874Z,36.10
2019-05-01T17:59:08.611Z,36.13
2019-05-01T18:01:57.892Z,36.77
2019-05-01T18:04:49.065Z,36.43
2019-05-01T18:07:18.070Z,36.60
2019-05-01T18:09:46.925Z,36.13
2019-05-01T18:12:15.793Z,36.10
2019-05-01T18:14:44.592Z,35.80
2019-05-01T18:17:13.304Z,36.77
2019-05-01T18:19:42.160Z,38.30
2019-05-01T18:22:32.270Z,38.20
2019-05-01T18:25:12.885Z,37.10
2019-05-01T18:27:59.764Z,40.20
2019-05-01T18:30:34.838Z,39.17
2019-05-01T18:33:03.900Z,42.40
2019-05-01T18:35:32.731Z,40.23
2019-05-01T18:38:14.079Z,44.33
2019-05-01T18:40:52.013Z,39.13
2019-05-01T18:43:20.882Z,39.70
2019-05-01T18:45:55.861Z,37.70
2019-05-01T18:48:25.236Z,38.00
2019-05-01T18:50:56.119Z,35.33
2019-05-01T18:53:24.944Z,45.77
2019-05-01T18:55:53.969Z,35.80
2019-05-01T18:58:23.241Z,43.00
2019-05-01T19:00:52.153Z,39.87
2019-05-01T19:03:22.551Z,36.67
2019-05-01T19:05:51.766Z,57.20
2019-05-01T19:08:21.268Z,38.17
2019-05-01T19:10:50.162Z,39.03
2019-05-01T19:13:19.387Z,36.23
2019-05-01T19:15:48.176Z,41.63
2019-05-01T19:18:17.097Z,39.57
2019-05-01T19:20:58.825Z,36.87
2019-05-01T19:23:16.623Z,41.37
2019-05-01T19:25:45.815Z,40.80
2019-05-01T19:28:15.704Z,36.73
2019-05-01T19:30:44.550Z,36.57
2019-05-01T19:33:13.424Z,36.77
2019-05-01T19:35:42.511Z,41.07
2019-05-01T19:38:11.723Z,37.57
2019-05-01T19:40:40.648Z,37.47
2019-05-01T19:43:09.575Z,37.50
2019-05-01T19:45:38.936Z,41.20
2019-05-01T19:48:08.009Z,37.47
2019-05-01T19:50:39.997Z,35.60
2019-05-01T19:53:10.124Z,36.80
2019-05-01T19:55:39.902Z,37.00
2019-05-01T19:58:09.456Z,42.07
2019-05-01T20:00:53.045Z,37.07
2019-05-01T20:03:22.474Z,36.13
2019-05-01T20:05:51.667Z,37.23
2019-05-01T20:08:21.069Z,37.80
2019-05-01T20:10:50.233Z,45.03
2019-05-01T20:13:19.103Z,38.73
2019-05-01T20:15:47.980Z,40.30
2019-05-01T20:18:16.716Z,44.13
2019-05-01T20:20:45.767Z,43.17
2019-05-01T20:23:14.618Z,48.13
2019-05-01T20:25:43.519Z,40.00
2019-05-01T20:28:12.273Z,39.50
2019-05-01T20:30:41.384Z,38.00
2019-05-01T20:33:10.374Z,38.20
2019-05-01T20:35:39.151Z,42.20
2019-05-01T20:38:07.951Z,35.70
2019-05-01T20:40:36.755Z,40.37
2019-05-01T20:43:07.158Z,49.57
2019-05-01T20:45:36.491Z,38.00
2019-05-01T20:48:05.414Z,39.03
2019-05-01T20:50:34.210Z,41.40
2019-05-01T20:53:03.356Z,41.33
2019-05-01T20:55:32.206Z,41.43
2019-05-01T20:58:32.515Z,39.10
2019-05-01T21:01:03.865Z,42.53
2019-05-01T21:03:32.754Z,41.43
2019-05-01T21:06:09.202Z,39.90
2019-05-01T21:08:48.536Z,40.30
2019-05-01T21:11:22.066Z,36.83
2019-05-01T21:13:56.630Z,46.83
2019-05-01T21:16:21.468Z,46.23
2019-05-01T21:18:50.441Z,36.57
2019-05-01T21:21:19.491Z,37.77
2019-05-01T21:23:52.715Z,52.03
2019-05-01T21:26:18.905Z,47.70
2019-05-01T21:28:47.931Z,36.77
2019-05-01T21:31:16.727Z,48.00
2019-05-01T21:33:50.429Z,44.13
2019-05-01T21:36:16.107Z,41.37
2019-05-01T21:38:45.146Z,36.67
2019-05-01T21:41:15.347Z,43.07
2019-05-01T21:43:46.287Z,49.23
2019-05-01T21:46:15.141Z,42.27
2019-05-01T21:48:44.387Z,38.70
2019-05-01T21:51:13.223Z,41.77
2019-05-01T21:53:46.265Z,41.83
2019-05-01T21:56:12.833Z,43.10
2019-05-01T21:58:41.769Z,42.07
2019-05-01T22:01:10.771Z,44.37
2019-05-01T22:03:39.914Z,43.50
2019-05-01T22:06:11.318Z,48.13
2019-05-01T22:08:41.061Z,49.40
2019-05-01T22:11:10.347Z,48.83
2019-05-01T22:13:39.183Z,47.07
2019-05-01T22:16:18.509Z,46.20
2019-05-01T22:19:01.271Z,51.63
2019-05-01T22:21:48.139Z,50.20
2019-05-01T22:24:34.915Z,55.50
2019-05-01T22:27:26.117Z,43.33
2019-05-01T22:30:18.436Z,45.60
2019-05-01T22:32:50.809Z,47.87
2019-05-01T22:35:22.357Z,49.80
2019-05-01T22:37:51.291Z,50.53
2019-05-01T22:40:26.730Z,42.53
2019-05-01T22:42:55.671Z,38.90
2019-05-01T22:45:25.399Z,49.43
2019-05-01T22:47:54.274Z,52.77
2019-05-01T22:50:23.092Z,45.47
2019-05-01T22:52:52.071Z,43.13
2019-05-01T22:55:25.278Z,44.47
2019-05-01T22:57:51.370Z,52.20
2019-05-01T23:00:46.443Z,48.40
2019-05-01T23:03:20.797Z,47.13
2019-05-01T23:05:49.602Z,47.17
2019-05-01T23:08:18.508Z,54.23
2019-05-01T23:10:48.550Z,44.00
2019-05-01T23:13:17.629Z,51.60
2019-05-01T23:15:47.145Z,51.57
2019-05-01T23:18:17.372Z,50.33
2019-05-01T23:20:46.179Z,47.70
2019-05-01T23:23:14.986Z,45.63
2019-05-01T23:25:43.900Z,51.87
2019-05-01T23:28:12.908Z,49.63
2019-05-01T23:30:42.342Z,52.23
2019-05-01T23:33:11.407Z,47.83
2019-05-01T23:35:40.275Z,48.67
2019-05-01T23:38:09.043Z,48.67
2019-05-01T23:40:38.988Z,49.30
2019-05-01T23:43:07.967Z,53.83
2019-05-01T23:45:37.329Z,51.63
2019-05-01T23:48:06.183Z,50.27
2019-05-01T23:50:34.995Z,52.37
2019-05-01T23:53:03.910Z,40.93
2019-05-01T23:55:33.116Z,50.87
2019-05-01T23:58:01.924Z,56.47
